createdAt,value
2018-11-29T00:01:36.509Z,18.23
2018-11-29T00:04:08.569Z,20.90
2018-11-29T00:06:40.628Z,18.03
2018-11-29T00:09:12.678Z,18.47
2018-11-29T00:11:44.740Z,15.07
2018-11-29T00:14:16.776Z,15.40
2018-11-29T00:16:48.889Z,20.17
2018-11-29T00:19:20.940Z,24.83
2018-11-29T00:21:52.960Z,17.93
2018-11-29T00:24:25.110Z,24.47
2018-11-29T00:26:57.126Z,21.03
2018-11-29T00:29:29.239Z,24.90
2018-11-29T00:32:01.612Z,22.87
2018-11-29T00:34:33.713Z,24.27
2018-11-29T00:37:05.732Z,22.00
2018-11-29T00:39:37.824Z,23.90
2018-11-29T00:42:09.871Z,20.93
2018-11-29T00:44:41.965Z,20.97
2018-11-29T00:47:13.971Z,22.00
2018-11-29T00:49:46.019Z,24.43
2018-11-29T00:52:18.027Z,18.83
2018-11-29T00:54:50.070Z,20.63
2018-11-29T00:57:22.140Z,25.40
2018-11-29T00:59:54.263Z,25.23
2018-11-29T01:02:26.299Z,23.97
2018-11-29T01:04:58.338Z,24.20
2018-11-29T01:07:30.658Z,22.17
2018-11-29T01:10:05.736Z,27.00
2018-11-29T01:12:37.780Z,24.77
2018-11-29T01:15:13.448Z,26.70
2018-11-29T01:17:46.480Z,26.33
2018-11-29T01:20:19.328Z,24.70
2018-11-29T01:22:51.337Z,26.80
2018-11-29T01:25:23.454Z,22.03
2018-11-29T01:27:55.465Z,23.77
2018-11-29T01:30:27.655Z,25.50
2018-11-29T01:32:59.788Z,26.27
2018-11-29T01:35:32.085Z,25.60
2018-11-29T01:38:04.198Z,22.07
2018-11-29T01:40:36.332Z,23.67
2018-11-29T01:43:08.404Z,23.33
2018-11-29T01:45:40.465Z,18.20
2018-11-29T01:48:12.709Z,25.83
2018-11-29T01:50:49.840Z,24.70
2018-11-29T01:53:21.943Z,23.77
2018-11-29T01:55:54.133Z,22.87
2018-11-29T01:58:26.184Z,24.20
2018-11-29T02:00:58.233Z,24.23
2018-11-29T02:03:30.292Z,23.27
2018-11-29T02:06:02.358Z,24.63
2018-11-29T02:08:34.406Z,21.37
2018-11-29T02:11:06.676Z,20.80
2018-11-29T02:13:38.794Z,18.57
2018-11-29T02:16:10.856Z,21.83
2018-11-29T02:18:43.209Z,25.30
2018-11-29T02:21:15.382Z,20.03
2018-11-29T02:23:47.598Z,23.10
2018-11-29T02:26:19.826Z,26.67
2018-11-29T02:28:51.972Z,25.83
2018-11-29T02:31:24.162Z,25.47
2018-11-29T02:33:56.289Z,22.20
2018-11-29T02:36:28.463Z,22.20
2018-11-29T02:39:00.516Z,20.40
2018-11-29T02:41:32.726Z,26.60
2018-11-29T02:44:04.788Z,26.77
2018-11-29T02:46:36.858Z,20.73
2018-11-29T02:49:08.876Z,21.63
2018-11-29T02:51:40.933Z,23.00
2018-11-29T02:54:13.019Z,25.77
2018-11-29T02:56:45.213Z,24.37
2018-11-29T02:59:17.230Z,23.07
2018-11-29T03:01:49.282Z,27.17
2018-11-29T03:04:21.286Z,26.60
2018-11-29T03:06:53.369Z,23.77
2018-11-29T03:09:25.386Z,25.37
2018-11-29T03:11:57.562Z,27.03
2018-11-29T03:14:29.587Z,23.87
2018-11-29T03:17:01.641Z,20.80
2018-11-29T03:19:33.666Z,24.27
2018-11-29T03:22:05.746Z,27.07
2018-11-29T03:24:37.806Z,23.60
2018-11-29T03:27:09.844Z,24.53
2018-11-29T03:29:42.071Z,17.73
2018-11-29T03:32:14.149Z,25.30
2018-11-29T03:34:46.217Z,21.30
2018-11-29T03:37:18.356Z,24.73
2018-11-29T03:39:50.516Z,26.23
2018-11-29T03:42:22.689Z,24.80
2018-11-29T03:44:54.835Z,24.13
2018-11-29T03:47:26.868Z,20.07
2018-11-29T03:49:58.917Z,16.30
2018-11-29T03:52:31.004Z,22.27
2018-11-29T03:55:03.990Z,26.03
2018-11-29T03:57:36.144Z,21.70
2018-11-29T04:00:14.269Z,23.67
2018-11-29T04:02:47.024Z,22.27
2018-11-29T04:05:19.043Z,25.07
2018-11-29T04:07:51.081Z,23.13
2018-11-29T04:10:23.142Z,25.67
2018-11-29T04:12:55.132Z,24.00
2018-11-29T04:15:27.172Z,24.27
2018-11-29T04:17:59.159Z,17.00
2018-11-29T04:20:31.256Z,21.17
2018-11-29T04:23:03.331Z,20.47
2018-11-29T04:25:35.376Z,25.40
2018-11-29T04:28:07.409Z,19.33
2018-11-29T04:30:39.420Z,22.73
2018-11-29T04:33:11.461Z,22.90
2018-11-29T04:35:43.473Z,22.17
2018-11-29T04:38:15.524Z,24.83
2018-11-29T04:40:47.570Z,24.77
2018-11-29T04:43:19.602Z,24.70
2018-11-29T04:46:03.386Z,24.13
2018-11-29T04:48:35.463Z,20.10
2018-11-29T04:51:07.513Z,23.27
2018-11-29T04:53:39.624Z,23.40
2018-11-29T04:56:11.642Z,22.60
2018-11-29T04:58:43.696Z,24.50
2018-11-29T05:01:15.784Z,25.00
2018-11-29T05:03:48.883Z,15.37
2018-11-29T05:06:20.982Z,23.63
2018-11-29T05:08:53.004Z,24.10
2018-11-29T05:11:25.063Z,25.87
2018-11-29T05:13:57.095Z,18.93
2018-11-29T05:16:29.170Z,22.40
2018-11-29T05:19:01.182Z,22.10
2018-11-29T05:21:33.223Z,21.40
2018-11-29T05:24:05.530Z,20.07
2018-11-29T05:26:38.169Z,22.23
2018-11-29T05:29:10.168Z,19.77
2018-11-29T05:31:42.224Z,19.20
2018-11-29T05:34:14.325Z,18.87
2018-11-29T05:36:46.349Z,20.00
2018-11-29T05:39:18.403Z,21.63
2018-11-29T05:41:50.436Z,18.40
2018-11-29T05:44:22.493Z,21.27
2018-11-29T05:46:54.499Z,17.73
2018-11-29T05:49:26.534Z,22.27
2018-11-29T05:51:58.557Z,19.60
2018-11-29T05:54:32.456Z,17.63
2018-11-29T05:57:04.725Z,20.93
2018-11-29T05:59:36.753Z,19.50
2018-11-29T06:02:08.866Z,21.97
2018-11-29T06:04:40.918Z,18.50
2018-11-29T06:07:12.961Z,20.73
2018-11-29T06:09:45.011Z,20.13
2018-11-29T06:12:17.029Z,19.50
2018-11-29T06:14:49.077Z,19.80
2018-11-29T06:17:21.116Z,21.70
2018-11-29T06:19:53.150Z,19.30
2018-11-29T06:22:25.161Z,20.00
2018-11-29T06:24:57.236Z,12.60
2018-11-29T06:27:29.277Z,20.53
2018-11-29T06:30:01.317Z,17.33
2018-11-29T06:32:33.317Z,19.50
2018-11-29T06:35:05.853Z,16.90
2018-11-29T06:37:37.888Z,19.47
2018-11-29T06:40:11.031Z,21.50
2018-11-29T06:42:43.173Z,16.87
2018-11-29T06:45:19.097Z,16.20
2018-11-29T06:47:51.521Z,19.60
2018-11-29T06:50:23.567Z,18.53
2018-11-29T06:52:55.596Z,21.70
2018-11-29T06:55:27.597Z,15.20
2018-11-29T06:57:59.645Z,17.97
2018-11-29T07:00:31.876Z,15.50
2018-11-29T07:03:04.655Z,21.80
2018-11-29T07:05:36.686Z,17.40
2018-11-29T07:08:08.718Z,17.50
2018-11-29T07:10:40.755Z,19.47
2018-11-29T07:13:12.800Z,19.03
2018-11-29T07:15:44.899Z,20.63
2018-11-29T07:18:16.916Z,19.93
2018-11-29T07:21:00.684Z,15.87
2018-11-29T07:23:33.013Z,20.60
2018-11-29T07:26:05.480Z,20.43
2018-11-29T07:28:37.491Z,18.53
2018-11-29T07:31:09.524Z,17.03
2018-11-29T07:33:41.601Z,17.97
2018-11-29T07:36:13.690Z,18.77
2018-11-29T07:38:45.728Z,19.03
2018-11-29T07:41:17.749Z,16.87
2018-11-29T07:43:49.787Z,20.90
2018-11-29T07:46:21.852Z,19.20
2018-11-29T07:48:53.885Z,18.67
2018-11-29T07:51:25.912Z,17.50
2018-11-29T07:53:57.909Z,18.87
2018-11-29T07:56:29.942Z,19.07
2018-11-29T07:59:01.920Z,19.03
2018-11-29T08:01:33.947Z,20.00
2018-11-29T08:04:05.953Z,18.97
2018-11-29T08:06:37.972Z,15.93
2018-11-29T08:09:10.009Z,18.37
2018-11-29T08:11:42.019Z,18.83
2018-11-29T08:14:14.045Z,12.93
2018-11-29T08:16:46.099Z,19.60
2018-11-29T08:19:18.130Z,18.33
2018-11-29T08:21:50.147Z,17.50
2018-11-29T08:24:22.167Z,18.37
2018-11-29T08:26:54.185Z,17.63
2018-11-29T08:29:26.246Z,18.40
2018-11-29T08:31:58.298Z,17.63
2018-11-29T08:34:30.335Z,15.83
2018-11-29T08:37:02.368Z,17.47
2018-11-29T08:39:34.417Z,17.07
2018-11-29T08:42:06.468Z,15.77
2018-11-29T08:44:38.505Z,18.03
2018-11-29T08:47:10.547Z,16.13
2018-11-29T08:49:42.586Z,17.83
2018-11-29T08:52:14.645Z,17.80
2018-11-29T08:54:46.655Z,16.47
2018-11-29T08:57:18.692Z,18.20
2018-11-29T08:59:50.722Z,15.80
2018-11-29T09:02:22.728Z,18.07
2018-11-29T09:04:54.805Z,16.87
2018-11-29T09:07:27.680Z,18.20
2018-11-29T09:09:59.713Z,19.17
2018-11-29T09:12:31.776Z,17.33
2018-11-29T09:15:05.156Z,17.93
2018-11-29T09:17:37.534Z,18.83
2018-11-29T09:20:10.749Z,18.83
2018-11-29T09:22:42.767Z,16.83
2018-11-29T09:25:15.790Z,19.23
2018-11-29T09:27:47.800Z,18.90
2018-11-29T09:30:20.678Z,18.47
2018-11-29T09:32:53.270Z,18.93
2018-11-29T09:35:25.363Z,18.57
2018-11-29T09:37:57.388Z,17.43
2018-11-29T09:40:29.479Z,17.93
2018-11-29T09:43:01.516Z,18.07
2018-11-29T09:45:33.561Z,17.70
2018-11-29T09:48:05.596Z,16.03
2018-11-29T09:50:37.673Z,15.33
2018-11-29T09:53:10.278Z,16.60
2018-11-29T09:55:42.342Z,18.57
2018-11-29T09:58:14.321Z,18.00
2018-11-29T10:00:46.388Z,18.17
2018-11-29T10:03:18.445Z,17.90
2018-11-29T10:05:50.505Z,17.53
2018-11-29T10:08:26.103Z,17.10
2018-11-29T10:10:54.725Z,17.70
2018-11-29T10:13:26.756Z,14.57
2018-11-29T10:15:58.806Z,15.30
2018-11-29T10:18:30.816Z,16.73
2018-11-29T10:21:02.861Z,17.87
2018-11-29T10:23:35.007Z,16.03
2018-11-29T10:26:07.020Z,17.57
2018-11-29T10:28:39.066Z,17.23
2018-11-29T10:31:11.108Z,16.80
2018-11-29T10:33:43.148Z,16.83
2018-11-29T10:36:15.203Z,16.60
2018-11-29T10:38:47.288Z,15.50
2018-11-29T10:41:19.329Z,15.50
2018-11-29T10:43:51.384Z,17.03
2018-11-29T10:46:23.410Z,12.70
2018-11-29T10:48:55.477Z,16.30
2018-11-29T10:51:27.519Z,16.43
2018-11-29T10:53:59.533Z,17.27
2018-11-29T10:56:31.568Z,15.60
2018-11-29T10:59:03.607Z,15.40
2018-11-29T11:01:41.412Z,14.23
2018-11-29T11:04:13.499Z,16.83
2018-11-29T11:06:45.507Z,14.83
2018-11-29T11:09:17.567Z,15.67
2018-11-29T11:11:49.616Z,15.60
2018-11-29T11:14:21.668Z,15.70
2018-11-29T11:16:53.765Z,16.80
2018-11-29T11:19:25.784Z,15.63
2018-11-29T11:21:58.003Z,15.17
2018-11-29T11:24:29.933Z,15.20
2018-11-29T11:27:02.008Z,15.17
2018-11-29T11:29:34.031Z,15.43
2018-11-29T11:32:06.088Z,16.13
2018-11-29T11:34:38.128Z,16.23
2018-11-29T11:37:10.161Z,17.27
2018-11-29T11:39:42.542Z,17.33
2018-11-29T11:42:14.299Z,16.73
2018-11-29T11:44:46.376Z,17.60
2018-11-29T11:47:18.365Z,16.47
2018-11-29T11:49:50.395Z,15.63
2018-11-29T11:52:22.406Z,16.67
2018-11-29T11:54:54.425Z,15.87
2018-11-29T11:57:26.428Z,16.40
2018-11-29T11:59:58.481Z,16.07
2018-11-29T12:02:30.496Z,17.93
2018-11-29T12:05:02.585Z,17.90
2018-11-29T12:07:34.691Z,15.87
2018-11-29T12:10:08.417Z,18.80
2018-11-29T12:12:40.449Z,15.73
2018-11-29T12:15:13.474Z,15.40
2018-11-29T12:17:46.175Z,13.73
2018-11-29T12:20:19.036Z,18.00
2018-11-29T12:22:51.081Z,16.63
2018-11-29T12:25:23.127Z,16.33
2018-11-29T12:27:55.183Z,17.37
2018-11-29T12:30:34.088Z,17.10
2018-11-29T12:33:06.676Z,16.10
2018-11-29T12:35:38.727Z,16.83
2018-11-29T12:38:10.794Z,16.03
2018-11-29T12:40:42.859Z,16.80
2018-11-29T12:43:14.936Z,15.53
2018-11-29T12:45:47.645Z,14.70
2018-11-29T12:48:19.694Z,16.03
2018-11-29T12:50:51.752Z,16.73
2018-11-29T12:53:23.808Z,17.20
2018-11-29T12:55:55.852Z,16.13
2018-11-29T12:58:27.863Z,15.03
2018-11-29T13:00:59.904Z,16.67
2018-11-29T13:03:31.925Z,17.10
2018-11-29T13:06:04.310Z,15.60
2018-11-29T13:08:36.336Z,16.07
2018-11-29T13:11:10.725Z,15.90
2018-11-29T13:13:40.443Z,15.93
2018-11-29T13:16:12.501Z,15.40
2018-11-29T13:18:44.557Z,16.23
2018-11-29T13:21:16.604Z,15.70
2018-11-29T13:23:48.681Z,15.47
2018-11-29T13:26:20.756Z,15.63
2018-11-29T13:28:52.800Z,17.10
2018-11-29T13:31:24.827Z,15.63
2018-11-29T13:33:56.853Z,16.87
2018-11-29T13:36:28.861Z,15.70
2018-11-29T13:39:00.895Z,14.60
2018-11-29T13:41:32.885Z,15.97
2018-11-29T13:44:04.943Z,16.43
2018-11-29T13:46:37.023Z,14.43
2018-11-29T13:49:09.028Z,15.77
2018-11-29T13:51:41.087Z,16.10
2018-11-29T13:54:13.118Z,15.80
2018-11-29T13:56:45.149Z,15.90
2018-11-29T13:59:17.192Z,16.00
2018-11-29T14:01:49.238Z,14.43
2018-11-29T14:04:21.236Z,15.73
2018-11-29T14:06:53.260Z,16.13
2018-11-29T14:09:25.273Z,15.63
2018-11-29T14:11:57.312Z,14.13
2018-11-29T14:14:29.337Z,15.90
2018-11-29T14:17:01.359Z,15.40
2018-11-29T14:19:33.408Z,14.90
2018-11-29T14:22:05.488Z,13.90
2018-11-29T14:24:37.532Z,15.60
2018-11-29T14:27:09.532Z,13.67
2018-11-29T14:29:41.837Z,15.47
2018-11-29T14:32:13.832Z,14.00
2018-11-29T14:34:45.893Z,14.17
2018-11-29T14:37:17.978Z,15.60
2018-11-29T14:39:50.049Z,14.97
2018-11-29T14:42:22.078Z,15.03
2018-11-29T14:44:54.203Z,10.93
2018-11-29T14:47:26.243Z,13.90
2018-11-29T14:49:58.330Z,12.83
2018-11-29T14:52:30.353Z,14.00
2018-11-29T14:55:02.452Z,13.10
2018-11-29T14:57:34.492Z,14.13
2018-11-29T15:00:08.467Z,15.00
2018-11-29T15:02:40.806Z,11.80
2018-11-29T15:05:14.531Z,13.57
2018-11-29T15:07:46.556Z,12.93
2018-11-29T15:10:18.600Z,13.77
2018-11-29T15:12:50.637Z,13.27
2018-11-29T15:15:22.778Z,12.70
2018-11-29T15:17:54.830Z,12.50
2018-11-29T15:20:34.909Z,13.17
2018-11-29T15:23:07.668Z,13.50
2018-11-29T15:25:39.741Z,13.37
2018-11-29T15:28:11.761Z,13.20
2018-11-29T15:30:43.848Z,13.03
2018-11-29T15:33:15.954Z,13.43
2018-11-29T15:35:47.996Z,11.80
2018-11-29T15:38:20.038Z,12.97
2018-11-29T15:40:52.153Z,12.33
2018-11-29T15:43:24.171Z,12.80
2018-11-29T15:45:56.241Z,12.53
2018-11-29T15:48:28.294Z,12.57
2018-11-29T15:51:00.369Z,14.07
2018-11-29T15:53:32.452Z,10.50
2018-11-29T15:56:04.602Z,13.13
2018-11-29T15:58:36.650Z,11.33
2018-11-29T16:01:08.696Z,13.57
2018-11-29T16:03:40.723Z,12.87
2018-11-29T16:06:12.780Z,13.17
2018-11-29T16:08:44.822Z,14.13
2018-11-29T16:11:16.892Z,12.03
2018-11-29T16:13:48.947Z,12.40
2018-11-29T16:16:20.997Z,13.17
2018-11-29T16:18:53.000Z,14.20
2018-11-29T16:21:25.040Z,13.87
2018-11-29T16:23:57.091Z,11.70
2018-11-29T16:26:29.156Z,15.10
2018-11-29T16:29:01.203Z,13.70
2018-11-29T16:31:33.208Z,13.87
2018-11-29T16:34:05.333Z,13.03
2018-11-29T16:36:37.359Z,12.57
2018-11-29T16:39:09.435Z,14.30
2018-11-29T16:41:41.436Z,13.00
2018-11-29T16:44:13.481Z,14.17
2018-11-29T16:46:45.488Z,13.87
2018-11-29T16:49:17.535Z,15.40
2018-11-29T16:51:49.560Z,15.13
2018-11-29T16:54:21.627Z,14.83
2018-11-29T16:56:53.640Z,11.87
2018-11-29T16:59:25.743Z,13.03
2018-11-29T17:01:57.815Z,13.47
2018-11-29T17:04:29.864Z,15.27
2018-11-29T17:07:01.907Z,14.60
2018-11-29T17:09:33.972Z,14.57
2018-11-29T17:12:06.132Z,13.37
2018-11-29T17:14:38.210Z,14.20
2018-11-29T17:17:10.283Z,12.67
2018-11-29T17:19:42.304Z,15.00
2018-11-29T17:22:14.439Z,14.73
2018-11-29T17:24:46.496Z,15.30
2018-11-29T17:27:18.561Z,11.50
2018-11-29T17:29:50.599Z,13.47
2018-11-29T17:32:22.684Z,12.37
2018-11-29T17:34:54.749Z,14.83
2018-11-29T17:37:26.816Z,13.93
2018-11-29T17:39:58.861Z,14.90
2018-11-29T17:42:30.900Z,12.97
2018-11-29T17:45:03.233Z,14.37
2018-11-29T17:47:35.240Z,14.03
2018-11-29T17:50:10.744Z,14.57
2018-11-29T17:52:42.783Z,14.63
2018-11-29T17:55:14.940Z,13.53
2018-11-29T17:57:46.977Z,14.03
2018-11-29T18:00:22.022Z,12.23
2018-11-29T18:02:54.069Z,12.97
2018-11-29T18:05:26.183Z,12.80
2018-11-29T18:07:58.240Z,11.97
2018-11-29T18:10:32.904Z,13.70
2018-11-29T18:13:13.110Z,13.00
2018-11-29T18:15:45.245Z,13.83
2018-11-29T18:18:17.316Z,12.33
2018-11-29T18:20:49.362Z,12.07
2018-11-29T18:23:21.375Z,13.60
2018-11-29T18:25:53.477Z,13.93
2018-11-29T18:28:25.476Z,10.87
2018-11-29T18:30:57.511Z,13.07
2018-11-29T18:33:29.528Z,10.20
2018-11-29T18:36:01.629Z,13.97
2018-11-29T18:38:33.636Z,12.97
2018-11-29T18:41:05.780Z,13.43
2018-11-29T18:43:38.072Z,11.70
2018-11-29T18:46:10.110Z,12.80
2018-11-29T18:48:42.133Z,11.90
2018-11-29T18:51:14.185Z,11.53
2018-11-29T18:53:46.307Z,11.47
2018-11-29T18:56:18.617Z,12.33
2018-11-29T18:58:50.716Z,13.33
2018-11-29T19:01:22.837Z,10.90
2018-11-29T19:03:54.920Z,11.40
2018-11-29T19:06:26.956Z,11.57
2018-11-29T19:08:58.981Z,12.43
2018-11-29T19:11:31.072Z,12.43
2018-11-29T19:14:03.153Z,11.27
2018-11-29T19:16:35.208Z,11.47
2018-11-29T19:19:07.260Z,11.33
2018-11-29T19:21:39.391Z,10.67
2018-11-29T19:24:11.493Z,9.60
2018-11-29T19:26:43.531Z,10.20
2018-11-29T19:29:15.583Z,11.00
2018-11-29T19:31:47.769Z,10.33
2018-11-29T19:34:19.835Z,9.03
2018-11-29T19:36:51.960Z,11.63
2018-11-29T19:39:23.996Z,7.63
2018-11-29T19:41:56.196Z,8.17
2018-11-29T19:44:29.503Z,11.43
2018-11-29T19:47:02.952Z,10.10
2018-11-29T19:49:36.410Z,9.67
2018-11-29T19:52:09.392Z,10.87
2018-11-29T19:54:42.527Z,10.00
2018-11-29T19:57:14.700Z,10.43
2018-11-29T19:59:46.772Z,9.63
2018-11-29T20:02:18.951Z,9.33
2018-11-29T20:04:50.959Z,9.00
2018-11-29T20:07:23.009Z,10.43
2018-11-29T20:09:55.144Z,7.73
2018-11-29T20:12:27.196Z,10.23
2018-11-29T20:14:59.317Z,8.70
2018-11-29T20:17:31.356Z,8.73
2018-11-29T20:20:03.889Z,9.70
2018-11-29T20:22:36.163Z,8.03
2018-11-29T20:25:11.273Z,8.43
2018-11-29T20:27:43.519Z,7.53
2018-11-29T20:30:16.652Z,10.80
2018-11-29T20:32:49.757Z,8.63
2018-11-29T20:35:21.889Z,9.83
2018-11-29T20:37:53.979Z,9.80
2018-11-29T20:40:28.189Z,9.03
2018-11-29T20:43:00.619Z,6.47
2018-11-29T20:45:35.397Z,8.57
2018-11-29T20:48:14.420Z,10.00
2018-11-29T20:50:46.992Z,9.37
2018-11-29T20:53:22.673Z,10.17
2018-11-29T20:55:54.707Z,9.27
2018-11-29T20:58:26.806Z,9.83
2018-11-29T21:01:05.594Z,9.20
2018-11-29T21:03:37.711Z,8.33
2018-11-29T21:06:11.469Z,8.13
2018-11-29T21:08:43.517Z,9.17
2018-11-29T21:11:15.969Z,10.97
2018-11-29T21:13:48.134Z,10.97
2018-11-29T21:16:20.209Z,8.83
2018-11-29T21:18:52.342Z,10.23
2018-11-29T21:21:24.412Z,8.63
2018-11-29T21:23:56.504Z,11.00
2018-11-29T21:26:28.791Z,10.73
2018-11-29T21:29:00.821Z,10.67
2018-11-29T21:31:32.890Z,11.70
2018-11-29T21:34:04.922Z,10.83
2018-11-29T21:36:36.977Z,12.43
2018-11-29T21:39:08.992Z,10.13
2018-11-29T21:41:41.069Z,11.53
2018-11-29T21:44:13.125Z,11.13
2018-11-29T21:46:45.320Z,12.00
2018-11-29T21:49:17.400Z,11.50
2018-11-29T21:51:49.497Z,11.70
2018-11-29T21:54:21.577Z,11.00
2018-11-29T21:56:53.697Z,10.10
2018-11-29T21:59:25.778Z,10.13
2018-11-29T22:01:57.893Z,9.80
2018-11-29T22:04:29.980Z,11.30
2018-11-29T22:07:02.051Z,11.90
2018-11-29T22:09:34.106Z,12.90
2018-11-29T22:12:06.314Z,10.83
2018-11-29T22:14:38.329Z,10.73
2018-11-29T22:17:10.424Z,11.57
2018-11-29T22:19:42.507Z,10.00
2018-11-29T22:22:14.569Z,12.33
2018-11-29T22:24:46.653Z,8.83
2018-11-29T22:27:18.741Z,13.10
2018-11-29T22:29:50.886Z,12.73
2018-11-29T22:32:22.952Z,12.53
2018-11-29T22:34:55.017Z,11.97
2018-11-29T22:37:27.103Z,12.53
2018-11-29T22:39:59.211Z,10.73
2018-11-29T22:42:31.308Z,11.63
2018-11-29T22:45:03.786Z,13.00
2018-11-29T22:47:35.883Z,12.63
2018-11-29T22:50:08.012Z,12.50
2018-11-29T22:52:40.129Z,13.50
2018-11-29T22:55:12.306Z,12.10
2018-11-29T22:57:44.261Z,13.47
2018-11-29T23:00:18.907Z,13.10
2018-11-29T23:02:50.961Z,12.00
2018-11-29T23:05:26.867Z,12.77
2018-11-29T23:07:58.973Z,12.37
2018-11-29T23:10:31.063Z,13.43
2018-11-29T23:13:03.108Z,12.30
2018-11-29T23:15:35.465Z,15.27
2018-11-29T23:18:07.600Z,13.40
2018-11-29T23:20:39.717Z,13.10
2018-11-29T23:23:11.908Z,11.17
2018-11-29T23:25:44.040Z,12.60
2018-11-29T23:28:16.149Z,12.40
2018-11-29T23:30:48.305Z,12.00
2018-11-29T23:33:20.423Z,10.77
2018-11-29T23:35:52.500Z,12.87
2018-11-29T23:38:24.603Z,11.00
2018-11-29T23:40:56.732Z,10.20
2018-11-29T23:43:28.871Z,8.37
2018-11-29T23:46:01.002Z,12.30
2018-11-29T23:48:33.040Z,13.10
2018-11-29T23:51:05.179Z,11.50
2018-11-29T23:53:37.244Z,12.13
2018-11-29T23:56:09.363Z,11.23
2018-11-29T23:58:41.394Z,10.87
